createdAt,value
2022-12-05T00:02:03.224Z,6.43
2022-12-05T00:07:07.925Z,5.13
2022-12-05T00:12:12.334Z,5.90
2022-12-05T00:17:15.680Z,6.40
2022-12-05T00:22:20.473Z,5.43
2022-12-05T00:27:23.746Z,6.07
2022-12-05T00:32:29.561Z,7.63
2022-12-05T00:37:34.262Z,8.70
2022-12-05T00:42:37.630Z,6.63
2022-12-05T00:47:40.886Z,7.73
2022-12-05T00:52:45.627Z,6.33
2022-12-05T00:57:48.840Z,6.50
2022-12-05T01:02:52.266Z,6.33
2022-12-05T01:07:57.131Z,7.30
2022-12-05T01:13:00.756Z,4.87
2022-12-05T01:18:04.212Z,6.00
2022-12-05T01:23:09.311Z,4.67
2022-12-05T01:28:13.035Z,4.33
2022-12-05T01:33:16.676Z,5.67
2022-12-05T01:38:21.276Z,5.50
2022-12-05T01:43:24.523Z,5.70
2022-12-05T01:48:33.112Z,3.37
2022-12-05T01:53:38.376Z,4.67
2022-12-05T01:58:44.643Z,3.63
2022-12-05T02:03:51.517Z,5.30
2022-12-05T02:08:56.778Z,6.30
2022-12-05T02:14:21.926Z,6.33
2022-12-05T02:19:49.073Z,5.73
2022-12-05T02:25:12.172Z,4.30
2022-12-05T02:30:19.220Z,3.53
2022-12-05T02:35:48.130Z,5.23
2022-12-05T02:40:59.693Z,5.50
2022-12-05T02:46:09.214Z,4.67
2022-12-05T02:51:15.875Z,3.90
2022-12-05T02:56:20.831Z,5.97
2022-12-05T03:01:28.370Z,4.73
2022-12-05T03:06:34.734Z,3.87
2022-12-05T03:11:42.796Z,4.63
2022-12-05T03:16:51.956Z,4.43
2022-12-05T03:22:01.664Z,3.50
2022-12-05T03:27:10.595Z,4.60
2022-12-05T03:32:22.592Z,3.77
2022-12-05T03:37:31.755Z,4.50
2022-12-05T03:42:38.431Z,5.13
2022-12-05T03:47:49.379Z,3.93
2022-12-05T03:53:19.128Z,6.67
2022-12-05T03:58:27.652Z,5.83
2022-12-05T04:03:40.484Z,4.53
2022-12-05T04:08:48.548Z,3.50
2022-12-05T04:13:55.402Z,3.53
2022-12-05T04:19:04.379Z,4.43
2022-12-05T04:24:27.790Z,3.67
2022-12-05T04:29:34.992Z,4.47
2022-12-05T04:34:42.944Z,4.37
2022-12-05T04:39:50.059Z,3.47
2022-12-05T04:44:58.557Z,3.60
2022-12-05T04:50:05.717Z,3.70
2022-12-05T04:55:13.505Z,4.57
2022-12-05T05:00:17.699Z,4.30
2022-12-05T05:05:23.580Z,4.03
2022-12-05T05:10:33.561Z,3.07
2022-12-05T05:15:36.958Z,3.93
2022-12-05T05:20:41.722Z,5.03
2022-12-05T05:25:45.046Z,4.30
2022-12-05T05:30:49.688Z,3.97
2022-12-05T05:35:54.424Z,4.33
2022-12-05T05:40:57.771Z,3.87
2022-12-05T05:46:04.797Z,5.63
2022-12-05T05:51:12.463Z,2.20
2022-12-05T05:56:21.431Z,4.77
2022-12-05T06:01:25.617Z,4.23
2022-12-05T06:06:30.361Z,5.10
2022-12-05T06:11:33.766Z,3.73
2022-12-05T06:16:37.132Z,4.47
2022-12-05T06:21:41.942Z,4.17
2022-12-05T06:26:45.381Z,3.47
2022-12-05T06:31:48.977Z,3.70
2022-12-05T06:36:53.642Z,5.67
2022-12-05T06:41:57.162Z,4.17
2022-12-05T06:47:00.463Z,6.40
2022-12-05T06:52:05.599Z,6.07
2022-12-05T06:57:09.772Z,6.30
2022-12-05T07:02:14.895Z,6.00
2022-12-05T07:07:19.574Z,6.50
2022-12-05T07:12:22.942Z,6.93
2022-12-05T07:17:26.492Z,6.47
2022-12-05T07:22:31.146Z,6.32
2022-12-05T07:27:35.264Z,6.32
2022-12-05T07:32:38.572Z,4.90
2022-12-05T07:37:43.677Z,5.57
2022-12-05T07:42:49.697Z,5.50
2022-12-05T07:47:53.069Z,6.85
2022-12-05T07:52:57.753Z,6.13
2022-12-05T07:58:01.062Z,6.88
2022-12-05T08:03:04.411Z,6.60
2022-12-05T08:08:09.147Z,7.43
2022-12-05T08:13:12.568Z,7.30
2022-12-05T08:18:16.148Z,8.03
2022-12-05T08:23:21.087Z,7.83
2022-12-05T08:28:24.688Z,8.00
2022-12-05T08:33:28.237Z,9.97
2022-12-05T08:38:33.472Z,9.00
2022-12-05T08:43:37.284Z,7.37
2022-12-05T08:48:40.699Z,9.50
2022-12-05T08:53:45.414Z,9.27
2022-12-05T08:58:48.910Z,8.80
2022-12-05T09:03:52.221Z,7.40
2022-12-05T09:08:59.817Z,7.17
2022-12-05T09:14:05.309Z,6.63
2022-12-05T09:19:13.788Z,7.47
2022-12-05T09:24:19.026Z,9.93
2022-12-05T09:29:22.368Z,8.97
2022-12-05T09:34:26.148Z,8.27
2022-12-05T09:39:30.819Z,6.97
2022-12-05T09:44:45.800Z,7.63
2022-12-05T09:49:52.499Z,9.43
2022-12-05T09:55:12.678Z,5.93
2022-12-05T10:00:16.560Z,5.30
2022-12-05T10:05:25.977Z,6.50
2022-12-05T10:10:40.345Z,6.43
2022-12-05T10:15:46.237Z,6.93
2022-12-05T10:20:53.502Z,6.83
2022-12-05T10:26:00.791Z,6.43
2022-12-05T10:31:09.138Z,8.10
2022-12-05T10:36:15.217Z,6.97
2022-12-05T10:41:20.299Z,7.60
2022-12-05T10:46:23.933Z,6.63
2022-12-05T10:51:35.795Z,6.70
2022-12-05T10:56:44.591Z,5.93
2022-12-05T11:01:51.235Z,6.57
2022-12-05T11:06:58.865Z,6.23
2022-12-05T11:12:14.060Z,6.47
2022-12-05T11:17:27.846Z,6.57
2022-12-05T11:22:36.926Z,6.67
2022-12-05T11:27:42.519Z,6.17
2022-12-05T11:32:45.999Z,7.60
2022-12-05T11:37:53.943Z,6.87
2022-12-05T11:43:28.144Z,7.23
2022-12-05T11:48:52.479Z,6.47
2022-12-05T11:55:03.392Z,7.30
2022-12-05T12:00:23.151Z,7.30
2022-12-05T12:05:37.509Z,6.50
2022-12-05T12:10:54.180Z,6.50
2022-12-05T12:16:09.974Z,8.30
2022-12-05T12:21:19.441Z,10.03
2022-12-05T12:26:31.204Z,8.07
2022-12-05T12:31:56.672Z,8.03
2022-12-05T12:37:05.115Z,7.03
2022-12-05T12:42:25.105Z,7.83
2022-12-05T12:47:40.425Z,7.77
2022-12-05T12:53:07.379Z,7.27
2022-12-05T12:58:24.118Z,9.13
2022-12-05T13:03:33.104Z,8.73
2022-12-05T13:08:41.728Z,7.97
2022-12-05T13:13:48.453Z,9.70
2022-12-05T13:18:53.277Z,10.20
2022-12-05T13:24:03.274Z,9.27
2022-12-05T13:29:06.752Z,10.30
2022-12-05T13:34:39.775Z,11.63
2022-12-05T13:40:01.305Z,10.40
2022-12-05T13:45:09.892Z,11.50
2022-12-05T13:50:20.767Z,10.77
2022-12-05T13:55:33.976Z,9.03
2022-12-05T14:00:39.242Z,8.70
2022-12-05T14:05:46.966Z,10.83
2022-12-05T14:11:12.088Z,11.07
2022-12-05T14:16:46.064Z,11.37
2022-12-05T14:21:59.347Z,9.03
2022-12-05T14:27:10.653Z,9.63
2022-12-05T14:32:24.209Z,6.53
2022-12-05T14:37:31.903Z,7.27
2022-12-05T14:42:39.442Z,10.10
2022-12-05T14:47:52.876Z,7.90
2022-12-05T14:53:19.412Z,6.33
2022-12-05T14:58:32.779Z,7.20
2022-12-05T15:03:39.222Z,6.23
2022-12-05T15:08:49.024Z,7.23
2022-12-05T15:13:53.248Z,5.93
2022-12-05T15:18:59.934Z,6.83
2022-12-05T15:24:07.041Z,4.70
2022-12-05T15:29:14.154Z,4.57
2022-12-05T15:34:22.466Z,4.47
2022-12-05T15:39:28.799Z,3.67
2022-12-05T15:44:37.626Z,4.93
2022-12-05T15:49:41.656Z,2.57
2022-12-05T15:54:47.782Z,5.17
2022-12-05T15:59:55.972Z,4.53
2022-12-05T16:05:01.282Z,3.97
2022-12-05T16:10:07.502Z,4.10
2022-12-05T16:15:16.084Z,4.03
2022-12-05T16:20:26.370Z,5.37
2022-12-05T16:25:33.986Z,3.90
2022-12-05T16:30:38.478Z,4.60
2022-12-05T16:35:43.383Z,4.37
2022-12-05T16:40:57.543Z,3.73
2022-12-05T16:46:27.812Z,3.87
2022-12-05T16:51:43.223Z,3.53
2022-12-05T16:56:49.630Z,3.63
2022-12-05T17:01:53.602Z,3.33
2022-12-05T17:06:57.532Z,4.20
2022-12-05T17:12:06.287Z,4.43
2022-12-05T17:17:14.294Z,3.93
2022-12-05T17:22:19.357Z,5.73
2022-12-05T17:27:25.085Z,4.60
2022-12-05T17:32:29.756Z,3.77
2022-12-05T17:37:33.989Z,4.40
2022-12-05T17:42:39.206Z,4.23
2022-12-05T17:47:44.390Z,3.57
2022-12-05T17:52:49.416Z,3.87
2022-12-05T17:57:55.389Z,3.63
2022-12-05T18:02:59.801Z,3.97
2022-12-05T18:08:04.472Z,4.43
2022-12-05T18:13:10.174Z,4.80
2022-12-05T18:18:18.871Z,4.77
2022-12-05T18:23:22.514Z,3.20
2022-12-05T18:28:28.463Z,4.90
2022-12-05T18:33:33.425Z,5.60
2022-12-05T18:38:38.824Z,3.60
2022-12-05T18:43:45.095Z,4.87
2022-12-05T18:48:50.831Z,4.77
2022-12-05T18:53:57.450Z,3.97
2022-12-05T18:59:06.024Z,4.30
2022-12-05T19:04:13.007Z,5.33
2022-12-05T19:09:20.268Z,5.13
2022-12-05T19:14:27.111Z,5.10
2022-12-05T19:19:34.974Z,5.07
2022-12-05T19:24:39.948Z,3.73
2022-12-05T19:29:47.072Z,4.93
2022-12-05T19:34:52.032Z,5.63
2022-12-05T19:39:57.237Z,5.53
2022-12-05T19:45:08.325Z,4.27
2022-12-05T19:50:16.428Z,5.10
2022-12-05T19:55:22.183Z,5.97
2022-12-05T20:00:29.965Z,4.20
2022-12-05T20:05:37.817Z,5.13
2022-12-05T20:10:44.824Z,4.57
2022-12-05T20:15:50.957Z,5.03
2022-12-05T20:21:00.870Z,4.67
2022-12-05T20:26:08.996Z,5.37
2022-12-05T20:31:15.566Z,4.83
2022-12-05T20:36:23.312Z,5.03
2022-12-05T20:41:30.288Z,4.90
2022-12-05T20:46:44.040Z,4.40
2022-12-05T20:51:49.921Z,4.60
2022-12-05T20:56:57.471Z,4.90
2022-12-05T21:02:05.413Z,5.13
2022-12-05T21:07:09.587Z,5.17
2022-12-05T21:12:13.404Z,7.30
2022-12-05T21:17:18.881Z,4.97
2022-12-05T21:22:22.301Z,5.97
2022-12-05T21:27:26.025Z,4.53
2022-12-05T21:32:30.757Z,5.20
2022-12-05T21:37:34.178Z,5.63
2022-12-05T21:42:37.491Z,4.43
2022-12-05T21:47:42.294Z,6.67
2022-12-05T21:52:45.598Z,5.47
2022-12-05T21:57:49.242Z,7.30
2022-12-05T22:02:55.363Z,6.70
2022-12-05T22:08:02.364Z,5.00
2022-12-05T22:13:09.472Z,4.90
2022-12-05T22:18:14.316Z,3.97
2022-12-05T22:23:17.664Z,4.83
2022-12-05T22:28:21.126Z,6.60
2022-12-05T22:33:26.695Z,6.43
2022-12-05T22:38:32.628Z,5.37
2022-12-05T22:43:37.748Z,6.00
2022-12-05T22:48:42.474Z,4.87
2022-12-05T22:53:46.580Z,4.10
2022-12-05T22:58:50.733Z,5.00
2022-12-05T23:03:58.576Z,3.47
2022-12-05T23:09:02.826Z,4.00
2022-12-05T23:14:06.192Z,3.20
2022-12-05T23:19:10.864Z,2.33
2022-12-05T23:24:14.681Z,1.77
2022-12-05T23:29:18.015Z,3.00
2022-12-05T23:34:22.671Z,1.47
2022-12-05T23:39:26.042Z,1.63
2022-12-05T23:44:29.359Z,1.13
2022-12-05T23:49:34.071Z,1.47
2022-12-05T23:54:37.523Z,1.33
2022-12-05T23:59:40.828Z,0.80
